ASN logo
ASN Wikibase Occurrence # 196703
Last updated: 23 November 2017
This information is added by users of ASN. Neither ASN nor the Flight Safety Foundation are responsible for the completeness or correctness of this information. If you feel this information is incomplete or incorrect, you can submit corrected information.

Date:16-JUL-2017
Time:ca 04:45
Type:Silhouette image of generic B738 model; specific model in this crash may look slightly different
Boeing 737-86N (WL)
Owner/operator:Air India Express
Registration: VT-GHE
C/n / msn: 60698 / 6096
Fatalities:Fatalities: 0 / Occupants:
Other fatalities:0
Airplane damage: None
Location:Mangalore-Bajpe Airport (IXE/VOML) -   India
Phase: Landing
Nature:International Scheduled Passenger
Departure airport:Dubai Airport (DXB/OMDB)
Destination airport:Mangalore-Bajpe Airport (IXE/VOML)
Narrative:
Air India Express flight IX814 suffered a brief runway excursion during landing rollout at Mangalore Airport in India.
The Boeing 737-800 drifed to the right after touchdown. The main landing gear ran over two runway edge lights before the crew brought the plane back to the runway centreline. The airplane taxied to the stand without incident and there was not apparent damage to the aircraft.

Weather about the time of the incident: (04:45 LT July 16 / 23:15Z July 15):
VOML 152330Z 27004KT 4000 BR FEW006 SCT012 BKN080 23/22 Q1008 NOSIG
VOML 152300Z 00000KT 4000 BR FEW006 SCT012 BKN080 23/22 Q1008 NOSIG
VOML 152230Z 00000KT 3000 -RA BR FEW005 SCT012 BKN080 23/22 Q1008 NOSIG
VOML 152200Z 00000KT 4000 BR SCT012 BKN080 23/22 Q1008 TEMPO 3000 BR

Sources:

http://www.financialexpress.com/india-news/air-india-express-boeing-737-flight-escapes-tragedy-aviation-disasters-after-skidding-off-mangaluru-airport-runway/765645/


Revision history:

Date/timeContributorUpdates
17-Jul-2017 07:42 harro Added

Corrections or additions? ... Edit this accident description